sensor_id;sensor_type;location;lat;lon;timestamp;temperature;humidity
66608;DHT22;53462;39.616;8.824;2023-01-26T00:01:09;3.20;99.90
66608;DHT22;53462;39.616;8.824;2023-01-26T00:03:35;3.30;99.90
66608;DHT22;53462;39.616;8.824;2023-01-26T00:06:05;3.20;99.90
66608;DHT22;53462;39.616;8.824;2023-01-26T00:08:35;3.20;99.90
66608;DHT22;53462;39.616;8.824;2023-01-26T00:11:06;3.10;99.90
66608;DHT22;53462;39.616;8.824;2023-01-26T00:13:33;3.10;99.90
66608;DHT22;53462;39.616;8.824;2023-01-26T00:15:59;3.10;99.90
66608;DHT22;53462;39.616;8.824;2023-01-26T00:18:25;2.90;99.90
66608;DHT22;53462;39.616;8.824;2023-01-26T00:20:56;2.90;99.90
66608;DHT22;53462;39.616;8.824;2023-01-26T00:23:23;2.90;99.90
66608;DHT22;53462;39.616;8.824;2023-01-26T00:25:49;2.80;99.90
66608;DHT22;53462;39.616;8.824;2023-01-26T00:28:15;2.80;99.90
66608;DHT22;53462;39.616;8.824;2023-01-26T00:30:40;2.80;99.90
66608;DHT22;53462;39.616;8.824;2023-01-26T00:33:06;2.90;99.90
66608;DHT22;53462;39.616;8.824;2023-01-26T00:35:33;2.70;99.90
66608;DHT22;53462;39.616;8.824;2023-01-26T00:38:01;2.80;99.90
66608;DHT22;53462;39.616;8.824;2023-01-26T00:40:26;2.90;99.90
66608;DHT22;53462;39.616;8.824;2023-01-26T00:42:52;3.00;99.90
66608;DHT22;53462;39.616;8.824;2023-01-26T00:45:22;3.00;99.90
66608;DHT22;53462;39.616;8.824;2023-01-26T00:47:48;3.10;99.90
66608;DHT22;53462;39.616;8.824;2023-01-26T00:50:14;3.10;99.90
66608;DHT22;53462;39.616;8.824;2023-01-26T00:52:40;2.90;99.90
66608;DHT22;53462;39.616;8.824;2023-01-26T00:55:06;2.70;99.90
66608;DHT22;53462;39.616;8.824;2023-01-26T00:57:32;2.60;99.90
66608;DHT22;53462;39.616;8.824;2023-01-26T00:59:58;2.70;99.90
66608;DHT22;53462;39.616;8.824;2023-01-26T01:02:24;2.90;99.90
66608;DHT22;53462;39.616;8.824;2023-01-26T01:04:50;3.00;99.90
66608;DHT22;53462;39.616;8.824;2023-01-26T01:07:17;3.10;99.90
66608;DHT22;53462;39.616;8.824;2023-01-26T01:09:44;3.10;99.90
66608;DHT22;53462;39.616;8.824;2023-01-26T01:12:11;2.90;99.90
66608;DHT22;53462;39.616;8.824;2023-01-26T01:14:37;2.80;99.90
66608;DHT22;53462;39.616;8.824;2023-01-26T01:17:03;2.80;99.90
66608;DHT22;53462;39.616;8.824;2023-01-26T01:19:29;3.00;99.90
66608;DHT22;53462;39.616;8.824;2023-01-26T01:21:55;2.90;99.90
66608;DHT22;53462;39.616;8.824;2023-01-26T01:24:21;2.70;99.90
66608;DHT22;53462;39.616;8.824;2023-01-26T01:26:46;2.90;99.90
66608;DHT22;53462;39.616;8.824;2023-01-26T01:29:13;3.00;99.90
66608;DHT22;53462;39.616;8.824;2023-01-26T01:31:39;3.10;99.90
66608;DHT22;53462;39.616;8.824;2023-01-26T01:34:06;3.10;99.90
66608;DHT22;53462;39.616;8.824;2023-01-26T01:36:31;2.80;99.90
66608;DHT22;53462;39.616;8.824;2023-01-26T01:38:57;2.80;99.90
66608;DHT22;53462;39.616;8.824;2023-01-26T01:41:24;2.90;99.90
66608;DHT22;53462;39.616;8.824;2023-01-26T01:43:51;2.80;99.90
66608;DHT22;53462;39.616;8.824;2023-01-26T01:51:54;2.80;99.90
66608;DHT22;53462;39.616;8.824;2023-01-26T01:54:29;2.80;99.90
66608;DHT22;53462;39.616;8.824;2023-01-26T01:56:59;2.60;99.90
66608;DHT22;53462;39.616;8.824;2023-01-26T01:59:29;2.70;99.90
66608;DHT22;53462;39.616;8.824;2023-01-26T02:01:56;2.60;99.90
66608;DHT22;53462;39.616;8.824;2023-01-26T02:04:23;2.50;99.90
66608;DHT22;53462;39.616;8.824;2023-01-26T02:06:51;2.60;99.90
66608;DHT22;53462;39.616;8.824;2023-01-26T02:09:41;2.60;99.90
66608;DHT22;53462;39.616;8.824;2023-01-26T02:12:28;2.50;99.90
66608;DHT22;53462;39.616;8.824;2023-01-26T02:14:56;2.50;99.90
66608;DHT22;53462;39.616;8.824;2023-01-26T02:17:22;2.60;99.90
66608;DHT22;53462;39.616;8.824;2023-01-26T02:25:43;2.80;99.90
66608;DHT22;53462;39.616;8.824;2023-01-26T02:28:12;2.80;99.90
66608;DHT22;53462;39.616;8.824;2023-01-26T02:30:38;2.80;99.90
66608;DHT22;53462;39.616;8.824;2023-01-26T02:33:04;2.90;99.90
66608;DHT22;53462;39.616;8.824;2023-01-26T02:35:32;2.80;99.90
66608;DHT22;53462;39.616;8.824;2023-01-26T02:38:00;2.70;99.90
66608;DHT22;53462;39.616;8.824;2023-01-26T02:43:14;2.80;99.90
66608;DHT22;53462;39.616;8.824;2023-01-26T02:45:40;2.80;99.90
66608;DHT22;53462;39.616;8.824;2023-01-26T02:48:07;2.80;99.90
66608;DHT22;53462;39.616;8.824;2023-01-26T02:50:34;2.70;99.90
66608;DHT22;53462;39.616;8.824;2023-01-26T02:53:00;2.70;99.90
66608;DHT22;53462;39.616;8.824;2023-01-26T02:55:28;2.60;99.90
66608;DHT22;53462;39.616;8.824;2023-01-26T02:57:58;2.80;99.90
66608;DHT22;53462;39.616;8.824;2023-01-26T03:00:30;2.90;99.90
66608;DHT22;53462;39.616;8.824;2023-01-26T03:02:58;2.80;99.90
66608;DHT22;53462;39.616;8.824;2023-01-26T03:05:26;2.80;99.90
66608;DHT22;53462;39.616;8.824;2023-01-26T03:07:54;2.50;99.90
66608;DHT22;53462;39.616;8.824;2023-01-26T03:10:22;2.30;99.90
66608;DHT22;53462;39.616;8.824;2023-01-26T03:12:51;2.40;99.90
66608;DHT22;53462;39.616;8.824;2023-01-26T03:15:16;2.50;99.90
66608;DHT22;53462;39.616;8.824;2023-01-26T03:18:03;2.70;99.90
66608;DHT22;53462;39.616;8.824;2023-01-26T03:20:49;2.70;99.90
66608;DHT22;53462;39.616;8.824;2023-01-26T03:23:33;2.70;99.90
66608;DHT22;53462;39.616;8.824;2023-01-26T03:26:19;2.80;99.90
66608;DHT22;53462;39.616;8.824;2023-01-26T03:29:04;2.60;99.90
66608;DHT22;53462;39.616;8.824;2023-01-26T03:31:30;2.60;99.90
66608;DHT22;53462;39.616;8.824;2023-01-26T03:33:56;2.10;99.90
66608;DHT22;53462;39.616;8.824;2023-01-26T03:36:22;1.90;99.90
66608;DHT22;53462;39.616;8.824;2023-01-26T03:38:48;1.80;99.90
66608;DHT22;53462;39.616;8.824;2023-01-26T03:41:14;1.80;99.90
66608;DHT22;53462;39.616;8.824;2023-01-26T03:43:58;1.80;99.90
66608;DHT22;53462;39.616;8.824;2023-01-26T03:46:43;2.00;99.90
66608;DHT22;53462;39.616;8.824;2023-01-26T03:49:27;2.10;99.90
66608;DHT22;53462;39.616;8.824;2023-01-26T03:52:12;2.40;99.90
66608;DHT22;53462;39.616;8.824;2023-01-26T03:54:56;2.30;99.90
66608;DHT22;53462;39.616;8.824;2023-01-26T03:57:41;2.20;99.90
66608;DHT22;53462;39.616;8.824;2023-01-26T04:00:07;2.30;99.90
66608;DHT22;53462;39.616;8.824;2023-01-26T04:02:38;2.30;99.90
66608;DHT22;53462;39.616;8.824;2023-01-26T04:05:22;2.30;99.90
66608;DHT22;53462;39.616;8.824;2023-01-26T04:08:07;2.10;99.90
66608;DHT22;53462;39.616;8.824;2023-01-26T04:11:08;2.10;99.90
66608;DHT22;53462;39.616;8.824;2023-01-26T04:13:34;2.20;99.90
66608;DHT22;53462;39.616;8.824;2023-01-26T04:16:25;2.30;99.90
66608;DHT22;53462;39.616;8.824;2023-01-26T04:19:10;2.10;99.90
66608;DHT22;53462;39.616;8.824;2023-01-26T04:21:55;2.10;99.90
66608;DHT22;53462;39.616;8.824;2023-01-26T04:24:21;2.20;99.90
66608;DHT22;53462;39.616;8.824;2023-01-26T04:26:50;2.20;99.90
66608;DHT22;53462;39.616;8.824;2023-01-26T04:29:21;2.20;99.90
66608;DHT22;53462;39.616;8.824;2023-01-26T04:31:47;2.20;99.90
66608;DHT22;53462;39.616;8.824;2023-01-26T04:34:18;2.20;99.90
66608;DHT22;53462;39.616;8.824;2023-01-26T04:36:44;2.10;99.90
66608;DHT22;53462;39.616;8.824;2023-01-26T04:39:10;2.20;99.90
66608;DHT22;53462;39.616;8.824;2023-01-26T04:41:39;2.30;99.90
66608;DHT22;53462;39.616;8.824;2023-01-26T04:44:08;2.30;99.90
66608;DHT22;53462;39.616;8.824;2023-01-26T04:46:34;2.50;99.90
66608;DHT22;53462;39.616;8.824;2023-01-26T04:49:01;2.40;99.90
66608;DHT22;53462;39.616;8.824;2023-01-26T04:51:27;2.50;99.90
66608;DHT22;53462;39.616;8.824;2023-01-26T04:53:54;2.60;99.90
66608;DHT22;53462;39.616;8.824;2023-01-26T04:56:30;2.50;99.90
66608;DHT22;53462;39.616;8.824;2023-01-26T04:58:59;2.60;99.90
66608;DHT22;53462;39.616;8.824;2023-01-26T05:01:26;2.60;99.90
66608;DHT22;53462;39.616;8.824;2023-01-26T05:03:52;2.50;99.90
66608;DHT22;53462;39.616;8.824;2023-01-26T05:06:18;2.60;99.90
66608;DHT22;53462;39.616;8.824;2023-01-26T05:08:46;2.50;99.90
66608;DHT22;53462;39.616;8.824;2023-01-26T05:11:12;2.50;99.90
66608;DHT22;53462;39.616;8.824;2023-01-26T05:13:53;2.30;99.90
66608;DHT22;53462;39.616;8.824;2023-01-26T05:16:25;2.30;99.90
66608;DHT22;53462;39.616;8.824;2023-01-26T05:19:11;2.20;99.90
66608;DHT22;53462;39.616;8.824;2023-01-26T05:21:48;2.00;99.90
66608;DHT22;53462;39.616;8.824;2023-01-26T05:24:14;2.00;99.90
66608;DHT22;53462;39.616;8.824;2023-01-26T05:26:58;1.80;99.90
66608;DHT22;53462;39.616;8.824;2023-01-26T05:29:44;1.70;99.90
66608;DHT22;53462;39.616;8.824;2023-01-26T05:32:10;1.70;99.90
66608;DHT22;53462;39.616;8.824;2023-01-26T05:34:37;1.70;99.90
66608;DHT22;53462;39.616;8.824;2023-01-26T05:37:03;1.70;99.90
66608;DHT22;53462;39.616;8.824;2023-01-26T05:39:30;1.50;99.90
66608;DHT22;53462;39.616;8.824;2023-01-26T05:41:57;1.60;99.90
66608;DHT22;53462;39.616;8.824;2023-01-26T05:44:23;1.50;99.90
66608;DHT22;53462;39.616;8.824;2023-01-26T05:47:04;1.30;99.90
66608;DHT22;53462;39.616;8.824;2023-01-26T05:49:31;1.30;99.90
66608;DHT22;53462;39.616;8.824;2023-01-26T05:51:57;1.20;99.90
66608;DHT22;53462;39.616;8.824;2023-01-26T05:54:23;1.10;99.90
66608;DHT22;53462;39.616;8.824;2023-01-26T05:56:49;1.10;99.90
66608;DHT22;53462;39.616;8.824;2023-01-26T05:59:18;1.10;99.90
66608;DHT22;53462;39.616;8.824;2023-01-26T06:01:45;1.10;99.90
66608;DHT22;53462;39.616;8.824;2023-01-26T06:04:11;1.20;99.90
66608;DHT22;53462;39.616;8.824;2023-01-26T06:06:43;1.20;99.90
66608;DHT22;53462;39.616;8.824;2023-01-26T06:09:25;1.10;99.90
66608;DHT22;53462;39.616;8.824;2023-01-26T06:12:23;1.00;99.90
66608;DHT22;53462;39.616;8.824;2023-01-26T06:15:12;1.20;99.90
66608;DHT22;53462;39.616;8.824;2023-01-26T06:17:42;1.30;99.90
66608;DHT22;53462;39.616;8.824;2023-01-26T06:20:11;1.50;99.90
66608;DHT22;53462;39.616;8.824;2023-01-26T06:22:40;1.50;99.90
66608;DHT22;53462;39.616;8.824;2023-01-26T06:25:06;1.40;99.90
66608;DHT22;53462;39.616;8.824;2023-01-26T06:27:33;1.40;99.90
66608;DHT22;53462;39.616;8.824;2023-01-26T06:30:05;1.40;99.90
66608;DHT22;53462;39.616;8.824;2023-01-26T06:32:32;1.50;99.90
66608;DHT22;53462;39.616;8.824;2023-01-26T06:34:58;1.80;99.90
66608;DHT22;53462;39.616;8.824;2023-01-26T06:37:24;2.10;99.90
66608;DHT22;53462;39.616;8.824;2023-01-26T06:39:51;2.40;99.90
66608;DHT22;53462;39.616;8.824;2023-01-26T06:42:17;2.30;99.90
66608;DHT22;53462;39.616;8.824;2023-01-26T06:44:43;2.30;99.90
66608;DHT22;53462;39.616;8.824;2023-01-26T06:47:09;2.40;99.90
66608;DHT22;53462;39.616;8.824;2023-01-26T06:49:37;2.40;99.90
66608;DHT22;53462;39.616;8.824;2023-01-26T06:54:48;2.20;99.90
66608;DHT22;53462;39.616;8.824;2023-01-26T06:57:28;2.10;99.90
66608;DHT22;53462;39.616;8.824;2023-01-26T06:59:59;2.00;99.90
66608;DHT22;53462;39.616;8.824;2023-01-26T07:02:51;2.20;99.90
66608;DHT22;53462;39.616;8.824;2023-01-26T07:05:17;2.20;99.90
66608;DHT22;53462;39.616;8.824;2023-01-26T07:07:43;2.20;99.90
66608;DHT22;53462;39.616;8.824;2023-01-26T07:10:10;2.20;99.90
66608;DHT22;53462;39.616;8.824;2023-01-26T07:12:44;2.40;99.90
66608;DHT22;53462;39.616;8.824;2023-01-26T07:15:11;2.60;99.90
66608;DHT22;53462;39.616;8.824;2023-01-26T07:17:40;2.70;99.90
66608;DHT22;53462;39.616;8.824;2023-01-26T07:20:06;2.80;99.90
66608;DHT22;53462;39.616;8.824;2023-01-26T07:22:32;2.80;99.90
66608;DHT22;53462;39.616;8.824;2023-01-26T07:24:58;2.80;99.90
66608;DHT22;53462;39.616;8.824;2023-01-26T07:27:24;2.70;99.90
66608;DHT22;53462;39.616;8.824;2023-01-26T07:29:50;2.70;99.90
66608;DHT22;53462;39.616;8.824;2023-01-26T07:32:16;2.90;99.90
66608;DHT22;53462;39.616;8.824;2023-01-26T07:34:42;3.20;99.90
66608;DHT22;53462;39.616;8.824;2023-01-26T07:37:08;3.10;99.90
66608;DHT22;53462;39.616;8.824;2023-01-26T07:39:34;3.10;99.90
66608;DHT22;53462;39.616;8.824;2023-01-26T07:42:00;3.20;99.90
66608;DHT22;53462;39.616;8.824;2023-01-26T07:44:46;3.30;99.90
66608;DHT22;53462;39.616;8.824;2023-01-26T07:47:12;3.40;99.90
66608;DHT22;53462;39.616;8.824;2023-01-26T07:49:39;3.30;99.90
66608;DHT22;53462;39.616;8.824;2023-01-26T07:52:06;3.40;99.90
66608;DHT22;53462;39.616;8.824;2023-01-26T07:54:33;3.40;99.90
66608;DHT22;53462;39.616;8.824;2023-01-26T07:56:59;3.30;99.90
66608;DHT22;53462;39.616;8.824;2023-01-26T07:59:25;3.10;99.90
66608;DHT22;53462;39.616;8.824;2023-01-26T08:01:51;3.10;99.90
66608;DHT22;53462;39.616;8.824;2023-01-26T08:04:17;3.20;99.90
66608;DHT22;53462;39.616;8.824;2023-01-26T08:06:43;3.30;99.90
66608;DHT22;53462;39.616;8.824;2023-01-26T08:09:10;3.40;99.90
66608;DHT22;53462;39.616;8.824;2023-01-26T08:11:35;3.50;99.90
66608;DHT22;53462;39.616;8.824;2023-01-26T08:14:01;3.50;99.90
66608;DHT22;53462;39.616;8.824;2023-01-26T08:16:27;3.50;99.90
66608;DHT22;53462;39.616;8.824;2023-01-26T08:18:53;3.60;99.90
66608;DHT22;53462;39.616;8.824;2023-01-26T08:21:19;3.70;99.90
66608;DHT22;53462;39.616;8.824;2023-01-26T08:23:49;3.80;99.90
66608;DHT22;53462;39.616;8.824;2023-01-26T08:26:16;3.90;99.90
66608;DHT22;53462;39.616;8.824;2023-01-26T08:28:42;4.00;99.90
66608;DHT22;53462;39.616;8.824;2023-01-26T08:31:11;4.00;99.90
66608;DHT22;53462;39.616;8.824;2023-01-26T08:33:39;3.90;99.90
66608;DHT22;53462;39.616;8.824;2023-01-26T08:36:07;4.00;99.90
66608;DHT22;53462;39.616;8.824;2023-01-26T08:38:35;4.00;99.90
66608;DHT22;53462;39.616;8.824;2023-01-26T08:41:01;4.00;99.90
66608;DHT22;53462;39.616;8.824;2023-01-26T08:43:28;4.10;99.90
66608;DHT22;53462;39.616;8.824;2023-01-26T08:45:54;4.10;99.90
66608;DHT22;53462;39.616;8.824;2023-01-26T08:48:20;4.20;99.90
66608;DHT22;53462;39.616;8.824;2023-01-26T08:50:46;4.40;99.90
66608;DHT22;53462;39.616;8.824;2023-01-26T08:53:12;4.50;99.90
66608;DHT22;53462;39.616;8.824;2023-01-26T08:55:38;4.60;99.90
66608;DHT22;53462;39.616;8.824;2023-01-26T08:58:04;4.60;99.90
66608;DHT22;53462;39.616;8.824;2023-01-26T09:00:30;4.70;99.90
66608;DHT22;53462;39.616;8.824;2023-01-26T09:03:01;4.70;99.90
66608;DHT22;53462;39.616;8.824;2023-01-26T09:05:34;4.80;99.90
66608;DHT22;53462;39.616;8.824;2023-01-26T09:08:01;4.80;99.90
66608;DHT22;53462;39.616;8.824;2023-01-26T09:10:27;4.90;99.90
66608;DHT22;53462;39.616;8.824;2023-01-26T09:12:53;4.80;99.90
66608;DHT22;53462;39.616;8.824;2023-01-26T09:15:18;4.80;99.90
66608;DHT22;53462;39.616;8.824;2023-01-26T09:17:47;4.70;99.90
66608;DHT22;53462;39.616;8.824;2023-01-26T09:20:13;4.90;99.90
66608;DHT22;53462;39.616;8.824;2023-01-26T09:22:39;5.00;99.90
66608;DHT22;53462;39.616;8.824;2023-01-26T09:25:06;5.00;99.90
66608;DHT22;53462;39.616;8.824;2023-01-26T09:27:32;5.10;99.90
66608;DHT22;53462;39.616;8.824;2023-01-26T09:29:58;5.20;99.90
66608;DHT22;53462;39.616;8.824;2023-01-26T09:32:24;5.10;99.90
66608;DHT22;53462;39.616;8.824;2023-01-26T09:34:50;5.20;99.90
66608;DHT22;53462;39.616;8.824;2023-01-26T09:37:16;5.30;99.90
66608;DHT22;53462;39.616;8.824;2023-01-26T09:39:42;5.40;99.90
66608;DHT22;53462;39.616;8.824;2023-01-26T09:42:56;5.60;99.90
66608;DHT22;53462;39.616;8.824;2023-01-26T09:45:53;5.60;99.90
66608;DHT22;53462;39.616;8.824;2023-01-26T09:48:43;5.70;99.90
66608;DHT22;53462;39.616;8.824;2023-01-26T09:56:30;5.90;99.90
66608;DHT22;53462;39.616;8.824;2023-01-26T09:59:03;6.00;99.90
66608;DHT22;53462;39.616;8.824;2023-01-26T10:01:53;5.90;99.90
66608;DHT22;53462;39.616;8.824;2023-01-26T10:06:52;6.00;99.90
66608;DHT22;53462;39.616;8.824;2023-01-26T10:09:47;6.00;99.90
66608;DHT22;53462;39.616;8.824;2023-01-26T10:14:53;6.30;99.90
66608;DHT22;53462;39.616;8.824;2023-01-26T10:17:46;6.40;99.90
66608;DHT22;53462;39.616;8.824;2023-01-26T10:20:30;6.50;99.90
66608;DHT22;53462;39.616;8.824;2023-01-26T10:23:11;6.40;99.90
66608;DHT22;53462;39.616;8.824;2023-01-26T10:25:42;6.30;99.90
66608;DHT22;53462;39.616;8.824;2023-01-26T10:28:19;6.20;99.90
66608;DHT22;53462;39.616;8.824;2023-01-26T10:30:48;6.20;99.90
66608;DHT22;53462;39.616;8.824;2023-01-26T10:35:44;6.40;99.90
66608;DHT22;53462;39.616;8.824;2023-01-26T10:38:46;6.50;99.90
66608;DHT22;53462;39.616;8.824;2023-01-26T10:43:55;7.10;99.90
66608;DHT22;53462;39.616;8.824;2023-01-26T10:46:33;7.10;99.90
66608;DHT22;53462;39.616;8.824;2023-01-26T10:49:14;7.10;99.90
66608;DHT22;53462;39.616;8.824;2023-01-26T10:51:43;7.30;99.90
66608;DHT22;53462;39.616;8.824;2023-01-26T10:54:13;7.20;99.90
66608;DHT22;53462;39.616;8.824;2023-01-26T10:56:57;7.20;99.90
66608;DHT22;53462;39.616;8.824;2023-01-26T10:59:32;7.30;99.90
66608;DHT22;53462;39.616;8.824;2023-01-26T11:04:35;7.30;99.90
66608;DHT22;53462;39.616;8.824;2023-01-26T11:07:25;7.40;99.90
66608;DHT22;53462;39.616;8.824;2023-01-26T11:09:54;7.40;99.90
66608;DHT22;53462;39.616;8.824;2023-01-26T11:12:24;7.40;99.90
66608;DHT22;53462;39.616;8.824;2023-01-26T11:15:01;7.60;99.90
66608;DHT22;53462;39.616;8.824;2023-01-26T11:20:37;7.60;99.90
66608;DHT22;53462;39.616;8.824;2023-01-26T11:23:59;7.50;99.90
66608;DHT22;53462;39.616;8.824;2023-01-26T11:26:25;7.40;99.90
66608;DHT22;53462;39.616;8.824;2023-01-26T11:32:29;7.60;99.90
66608;DHT22;53462;39.616;8.824;2023-01-26T11:35:30;7.50;99.90
66608;DHT22;53462;39.616;8.824;2023-01-26T11:50:12;7.70;99.90
66608;DHT22;53462;39.616;8.824;2023-01-26T11:52:50;7.80;99.90
66608;DHT22;53462;39.616;8.824;2023-01-26T11:58:38;8.00;99.90
66608;DHT22;53462;39.616;8.824;2023-01-26T12:03:50;8.30;99.90
66608;DHT22;53462;39.616;8.824;2023-01-26T12:06:35;8.30;99.90
66608;DHT22;53462;39.616;8.824;2023-01-26T12:11:47;8.60;99.90
66608;DHT22;53462;39.616;8.824;2023-01-26T12:14:43;8.60;99.90
66608;DHT22;53462;39.616;8.824;2023-01-26T12:20:18;8.90;99.90
66608;DHT22;53462;39.616;8.824;2023-01-26T12:25:49;9.00;99.90
66608;DHT22;53462;39.616;8.824;2023-01-26T12:28:31;9.00;99.90
66608;DHT22;53462;39.616;8.824;2023-01-26T12:31:20;9.10;99.90
66608;DHT22;53462;39.616;8.824;2023-01-26T12:33:52;9.10;99.90
66608;DHT22;53462;39.616;8.824;2023-01-26T12:39:28;9.40;99.90
66608;DHT22;53462;39.616;8.824;2023-01-26T12:45:03;9.50;99.90
66608;DHT22;53462;39.616;8.824;2023-01-26T12:48:10;9.50;99.90
66608;DHT22;53462;39.616;8.824;2023-01-26T12:50:48;9.60;99.90
66608;DHT22;53462;39.616;8.824;2023-01-26T12:54:04;9.70;99.90
66608;DHT22;53462;39.616;8.824;2023-01-26T12:56:21;9.60;99.90
66608;DHT22;53462;39.616;8.824;2023-01-26T12:58:51;9.70;99.90
66608;DHT22;53462;39.616;8.824;2023-01-26T13:01:22;9.70;99.90
66608;DHT22;53462;39.616;8.824;2023-01-26T13:04:10;9.80;99.90
66608;DHT22;53462;39.616;8.824;2023-01-26T13:06:37;10.00;99.90
66608;DHT22;53462;39.616;8.824;2023-01-26T13:09:24;10.00;99.90
66608;DHT22;53462;39.616;8.824;2023-01-26T13:11:57;10.00;99.90
66608;DHT22;53462;39.616;8.824;2023-01-26T13:25:46;10.20;99.90
66608;DHT22;53462;39.616;8.824;2023-01-26T13:27:56;10.30;99.90
66608;DHT22;53462;39.616;8.824;2023-01-26T13:32:55;10.30;99.90
66608;DHT22;53462;39.616;8.824;2023-01-26T13:35:26;10.40;99.90
66608;DHT22;53462;39.616;8.824;2023-01-26T13:40:45;10.50;99.90
66608;DHT22;53462;39.616;8.824;2023-01-26T13:43:23;10.40;99.90
66608;DHT22;53462;39.616;8.824;2023-01-26T13:51:09;10.80;99.90
66608;DHT22;53462;39.616;8.824;2023-01-26T13:53:42;10.70;99.90
66608;DHT22;53462;39.616;8.824;2023-01-26T13:58:51;10.70;99.90
66608;DHT22;53462;39.616;8.824;2023-01-26T14:01:19;10.70;99.90
66608;DHT22;53462;39.616;8.824;2023-01-26T14:03:45;10.70;99.90
66608;DHT22;53462;39.616;8.824;2023-01-26T14:06:17;10.70;99.90
66608;DHT22;53462;39.616;8.824;2023-01-26T14:08:53;10.70;99.90
66608;DHT22;53462;39.616;8.824;2023-01-26T14:11:23;10.80;99.90
66608;DHT22;53462;39.616;8.824;2023-01-26T14:13:51;10.70;99.90
66608;DHT22;53462;39.616;8.824;2023-01-26T14:18:48;10.80;99.90
66608;DHT22;53462;39.616;8.824;2023-01-26T14:21:20;10.80;99.90
66608;DHT22;53462;39.616;8.824;2023-01-26T14:23:53;10.90;99.90
66608;DHT22;53462;39.616;8.824;2023-01-26T14:26:40;10.80;99.90
66608;DHT22;53462;39.616;8.824;2023-01-26T14:29:11;10.90;99.90
66608;DHT22;53462;39.616;8.824;2023-01-26T14:31:42;11.00;99.90
66608;DHT22;53462;39.616;8.824;2023-01-26T14:34:09;10.90;99.90
66608;DHT22;53462;39.616;8.824;2023-01-26T14:36:35;10.70;99.90
66608;DHT22;53462;39.616;8.824;2023-01-26T14:39:15;10.50;99.90
66608;DHT22;53462;39.616;8.824;2023-01-26T14:41:41;10.60;99.90
66608;DHT22;53462;39.616;8.824;2023-01-26T14:44:08;10.40;99.90
66608;DHT22;53462;39.616;8.824;2023-01-26T14:49:20;10.30;99.90
66608;DHT22;53462;39.616;8.824;2023-01-26T14:51:53;10.30;99.90
66608;DHT22;53462;39.616;8.824;2023-01-26T14:54:28;10.30;99.90
66608;DHT22;53462;39.616;8.824;2023-01-26T14:56:57;10.20;99.90
66608;DHT22;53462;39.616;8.824;2023-01-26T14:59:31;10.20;99.90
66608;DHT22;53462;39.616;8.824;2023-01-26T15:04:42;10.10;99.90
66608;DHT22;53462;39.616;8.824;2023-01-26T15:07:21;10.10;99.90
66608;DHT22;53462;39.616;8.824;2023-01-26T15:09:51;10.00;99.90
66608;DHT22;53462;39.616;8.824;2023-01-26T15:12:18;10.00;99.90
66608;DHT22;53462;39.616;8.824;2023-01-26T15:14:50;10.00;99.90
66608;DHT22;53462;39.616;8.824;2023-01-26T15:17:40;10.00;99.90
66608;DHT22;53462;39.616;8.824;2023-01-26T15:22:40;9.90;99.90
66608;DHT22;53462;39.616;8.824;2023-01-26T15:25:26;10.00;99.90
66608;DHT22;53462;39.616;8.824;2023-01-26T15:27:54;10.00;99.90
66608;DHT22;53462;39.616;8.824;2023-01-26T15:30:29;10.00;99.90
66608;DHT22;53462;39.616;8.824;2023-01-26T15:32:56;9.90;99.90
66608;DHT22;53462;39.616;8.824;2023-01-26T15:35:30;9.80;99.90
66608;DHT22;53462;39.616;8.824;2023-01-26T15:38:04;9.70;99.90
66608;DHT22;53462;39.616;8.824;2023-01-26T15:40:31;9.60;99.90
66608;DHT22;53462;39.616;8.824;2023-01-26T15:43:17;9.40;99.90
66608;DHT22;53462;39.616;8.824;2023-01-26T15:45:54;9.30;99.90
66608;DHT22;53462;39.616;8.824;2023-01-26T15:48:22;9.20;99.90
66608;DHT22;53462;39.616;8.824;2023-01-26T15:50:49;9.10;99.90
66608;DHT22;53462;39.616;8.824;2023-01-26T15:53:18;9.10;99.90
66608;DHT22;53462;39.616;8.824;2023-01-26T15:55:48;9.00;99.90
66608;DHT22;53462;39.616;8.824;2023-01-26T15:58:26;9.00;99.90
66608;DHT22;53462;39.616;8.824;2023-01-26T16:00:53;8.90;99.90
66608;DHT22;53462;39.616;8.824;2023-01-26T16:03:20;8.80;99.90
66608;DHT22;53462;39.616;8.824;2023-01-26T16:05:46;8.70;99.90
66608;DHT22;53462;39.616;8.824;2023-01-26T16:08:16;8.60;99.90
66608;DHT22;53462;39.616;8.824;2023-01-26T16:10:42;8.60;99.90
66608;DHT22;53462;39.616;8.824;2023-01-26T16:13:15;8.50;99.90
66608;DHT22;53462;39.616;8.824;2023-01-26T16:15:46;8.40;99.90
66608;DHT22;53462;39.616;8.824;2023-01-26T16:18:13;8.40;99.90
66608;DHT22;53462;39.616;8.824;2023-01-26T16:20:41;8.30;99.90
66608;DHT22;53462;39.616;8.824;2023-01-26T16:23:25;8.30;99.90
66608;DHT22;53462;39.616;8.824;2023-01-26T16:25:53;8.20;99.90
66608;DHT22;53462;39.616;8.824;2023-01-26T16:28:20;8.10;99.90
66608;DHT22;53462;39.616;8.824;2023-01-26T16:30:47;8.20;99.90
66608;DHT22;53462;39.616;8.824;2023-01-26T16:33:19;8.10;99.90
66608;DHT22;53462;39.616;8.824;2023-01-26T16:35:49;8.10;99.90
66608;DHT22;53462;39.616;8.824;2023-01-26T16:38:15;8.00;99.90
66608;DHT22;53462;39.616;8.824;2023-01-26T16:40:45;8.00;99.90
66608;DHT22;53462;39.616;8.824;2023-01-26T16:43:22;7.90;99.90
66608;DHT22;53462;39.616;8.824;2023-01-26T16:45:48;7.80;99.90
66608;DHT22;53462;39.616;8.824;2023-01-26T16:48:15;7.70;99.90
66608;DHT22;53462;39.616;8.824;2023-01-26T16:50:43;7.70;99.90
66608;DHT22;53462;39.616;8.824;2023-01-26T16:53:30;7.60;99.90
66608;DHT22;53462;39.616;8.824;2023-01-26T16:55:58;7.70;99.90
66608;DHT22;53462;39.616;8.824;2023-01-26T16:58:24;7.80;99.90
66608;DHT22;53462;39.616;8.824;2023-01-26T17:00:51;7.80;99.90
66608;DHT22;53462;39.616;8.824;2023-01-26T17:03:18;7.80;99.90
66608;DHT22;53462;39.616;8.824;2023-01-26T17:05:44;7.70;99.90
66608;DHT22;53462;39.616;8.824;2023-01-26T17:08:10;7.80;99.90
66608;DHT22;53462;39.616;8.824;2023-01-26T17:10:37;7.70;99.90
66608;DHT22;53462;39.616;8.824;2023-01-26T17:13:03;7.60;99.90
66608;DHT22;53462;39.616;8.824;2023-01-26T17:15:30;7.60;99.90
66608;DHT22;53462;39.616;8.824;2023-01-26T17:17:56;7.50;99.90
66608;DHT22;53462;39.616;8.824;2023-01-26T17:20:22;7.50;99.90
66608;DHT22;53462;39.616;8.824;2023-01-26T17:22:48;7.40;99.90
66608;DHT22;53462;39.616;8.824;2023-01-26T17:25:15;7.30;99.90
66608;DHT22;53462;39.616;8.824;2023-01-26T17:27:41;7.40;99.90
66608;DHT22;53462;39.616;8.824;2023-01-26T17:30:08;7.30;99.90
66608;DHT22;53462;39.616;8.824;2023-01-26T17:32:35;7.20;99.90
66608;DHT22;53462;39.616;8.824;2023-01-26T17:35:01;7.20;99.90
66608;DHT22;53462;39.616;8.824;2023-01-26T17:37:27;7.00;99.90
66608;DHT22;53462;39.616;8.824;2023-01-26T17:39:55;7.00;99.90
66608;DHT22;53462;39.616;8.824;2023-01-26T17:42:21;7.00;99.90
66608;DHT22;53462;39.616;8.824;2023-01-26T17:44:47;6.90;99.90
66608;DHT22;53462;39.616;8.824;2023-01-26T17:47:13;6.70;99.90
66608;DHT22;53462;39.616;8.824;2023-01-26T17:49:39;6.50;99.90
66608;DHT22;53462;39.616;8.824;2023-01-26T17:52:05;6.40;99.90
66608;DHT22;53462;39.616;8.824;2023-01-26T17:54:33;6.30;99.90
66608;DHT22;53462;39.616;8.824;2023-01-26T17:56:59;6.20;99.90
66608;DHT22;53462;39.616;8.824;2023-01-26T17:59:25;6.00;99.90